Time;durP1;ratioP1;P1;durP2;ratioP2;P2;SDS_P1;SDS_P2;PMS_P1;PMS_P2;Temp;Humidity;BMP_temperature;BMP_pressure;BME280_temperature;BME280_humidity;BME280_pressure;Samples;Min_cycle;Max_cycle;Signal;HPM_P1;HPM_P2
2023/03/27 00:00:11;;;;;;;5.23;1.17;;;;;;;3.81;66.86;100133.00;5054577;28;20198;-80
2023/03/27 00:02:38;;;;;;;4.70;0.90;;;;;;;3.80;65.96;100129.53;5053361;28;20681;-81
2023/03/27 00:05:06;;;;;;;4.77;1.03;;;;;;;3.81;66.52;100135.66;5049277;28;20211;-80
2023/03/27 00:07:34;;;;;;;1.77;0.70;;;;;;;3.77;66.38;100148.09;5053752;28;20734;-82
2023/03/27 00:10:02;;;;;;;2.90;1.00;;;;;;;3.77;65.76;100149.88;5057468;28;20230;-82
2023/03/27 00:12:29;;;;;;;4.87;1.10;;;;;;;3.75;65.85;100149.09;5050305;28;20271;-82
2023/03/27 00:14:55;;;;;;;4.13;0.73;;;;;;;3.74;66.12;100158.78;5051657;28;20201;-82
2023/03/27 00:17:23;;;;;;;7.33;0.87;;;;;;;3.74;65.86;100165.81;5045241;28;20205;-82
2023/03/27 00:19:49;;;;;;;3.27;0.70;;;;;;;3.72;65.46;100167.66;5054983;28;20283;-81
2023/03/27 00:22:16;;;;;;;3.90;1.50;;;;;;;3.71;65.95;100187.03;5060115;28;20311;-81
2023/03/27 00:24:42;;;;;;;4.87;0.97;;;;;;;3.72;65.56;100184.31;5043022;28;20209;-81
2023/03/27 00:27:10;;;;;;;5.57;0.90;;;;;;;3.71;64.98;100181.75;5050739;28;20799;-81
2023/03/27 00:29:38;;;;;;;8.60;2.10;;;;;;;3.70;64.94;100182.66;5046053;28;20241;-81
2023/03/27 00:32:05;;;;;;;4.47;1.00;;;;;;;3.69;64.55;100191.50;5051131;28;20244;-81
2023/03/27 00:34:31;;;;;;;4.43;0.80;;;;;;;3.69;65.11;100202.03;5051900;28;20212;-81
2023/03/27 00:36:58;;;;;;;4.50;0.80;;;;;;;3.68;64.92;100200.31;5050973;28;20289;-82
2023/03/27 00:39:25;;;;;;;4.67;0.80;;;;;;;3.68;64.98;100206.44;5052526;28;20316;-81
2023/03/27 00:41:54;;;;;;;3.70;1.00;;;;;;;3.66;64.24;100213.53;5050277;28;20231;-81
2023/03/27 00:44:26;;;;;;;6.60;1.00;;;;;;;3.64;64.13;100217.16;5054017;28;20216;-81
2023/03/27 00:46:55;;;;;;;5.33;0.90;;;;;;;3.64;64.13;100230.31;5053138;28;20260;-81
2023/03/27 00:49:23;;;;;;;6.23;1.57;;;;;;;3.59;64.01;100225.25;5049704;28;20271;-81
2023/03/27 00:51:51;;;;;;;6.17;1.00;;;;;;;3.57;63.44;100231.50;5055944;28;20221;-81
2023/03/27 00:54:25;;;;;;;3.13;0.90;;;;;;;3.53;63.94;100246.56;5057338;28;20202;-82
2023/03/27 00:56:54;;;;;;;2.13;0.80;;;;;;;3.46;62.93;100253.84;5045130;28;20208;-82
2023/03/27 00:59:28;;;;;;;7.27;0.90;;;;;;;3.41;63.31;100249.69;5040102;28;20202;-82
2023/03/27 01:01:54;;;;;;;3.57;0.80;;;;;;;3.36;63.33;100255.16;5050021;28;20239;-82
2023/03/27 01:04:22;;;;;;;5.40;1.13;;;;;;;3.31;63.32;100251.00;5049020;28;20225;-81
2023/03/27 01:06:51;;;;;;;2.40;0.80;;;;;;;3.27;63.10;100252.88;5050015;28;20686;-81
2023/03/27 01:09:18;;;;;;;4.93;0.97;;;;;;;3.24;63.78;100262.66;5047497;28;20213;-82
2023/03/27 01:11:57;;;;;;;4.07;0.90;;;;;;;3.19;62.97;100260.22;5048577;28;20225;-82
2023/03/27 01:14:32;;;;;;;3.57;0.90;;;;;;;3.15;63.76;100258.63;5043853;28;20205;-81
2023/03/27 01:17:12;;;;;;;4.93;1.10;;;;;;;3.10;63.37;100271.97;5048307;28;20204;-81
2023/03/27 01:20:03;;;;;;;5.10;1.00;;;;;;;3.05;63.94;100271.28;5048684;28;20228;-81
2023/03/27 01:23:06;;;;;;;3.70;0.80;;;;;;;3.02;63.68;100275.81;5048065;28;20229;-81
2023/03/27 01:25:53;;;;;;;3.03;0.80;;;;;;;2.98;63.02;100276.84;5050352;28;20246;-81
2023/03/27 01:28:37;;;;;;;5.47;0.97;;;;;;;2.93;63.50;100278.78;5049469;28;20201;-82
2023/03/27 01:31:21;;;;;;;3.63;0.90;;;;;;;2.89;64.10;100287.69;5050471;28;20206;-81
2023/03/27 01:34:05;;;;;;;6.57;1.10;;;;;;;2.86;64.01;100303.63;5045867;28;20198;-81
2023/03/27 01:36:58;;;;;;;6.87;0.93;;;;;;;2.82;64.64;100302.00;5050155;28;20225;-81
2023/03/27 01:39:38;;;;;;;2.93;0.80;;;;;;;2.75;64.50;100314.53;5048689;28;20255;-81
2023/03/27 01:42:14;;;;;;;4.93;1.07;;;;;;;2.71;64.40;100311.13;5045664;28;20236;-81
2023/03/27 01:44:47;;;;;;;7.67;1.57;;;;;;;2.67;64.74;100321.84;5050116;28;21389;-81
2023/03/27 01:47:22;;;;;;;4.83;0.90;;;;;;;2.62;65.52;100322.00;5049671;28;20205;-81
2023/03/27 01:49:54;;;;;;;3.53;0.97;;;;;;;2.59;65.75;100323.88;5043043;28;20213;-81
2023/03/27 01:52:24;;;;;;;4.43;1.00;;;;;;;2.54;66.14;100321.41;5046463;28;20252;-80
2023/03/27 01:54:57;;;;;;;5.03;0.70;;;;;;;2.52;66.00;100335.50;5049547;28;20194;-80
2023/03/27 01:57:28;;;;;;;5.20;0.90;;;;;;;2.49;66.62;100340.91;5048249;28;20233;-81
2023/03/27 01:59:59;;;;;;;4.27;1.27;;;;;;;2.45;66.27;100342.78;5049876;28;20198;-81
2023/03/27 02:02:29;;;;;;;5.53;1.10;;;;;;;2.42;66.65;100343.75;5050792;28;20586;-80
2023/03/27 02:05:01;;;;;;;4.67;0.90;;;;;;;2.39;67.03;100341.22;5049444;28;20623;-81
2023/03/27 02:07:34;;;;;;;5.40;1.30;;;;;;;2.37;66.93;100347.44;5043454;28;20218;-81
2023/03/27 02:10:07;;;;;;;3.93;0.73;;;;;;;2.34;67.04;100352.78;5051804;28;20201;-80
2023/03/27 02:12:36;;;;;;;4.13;1.83;;;;;;;2.29;68.00;100349.47;5048693;28;20256;-80
2023/03/27 02:15:08;;;;;;;3.50;1.03;;;;;;;2.25;68.15;100353.09;5044885;28;20216;-81
2023/03/27 02:17:38;;;;;;;5.07;1.00;;;;;;;2.21;68.35;100356.75;5053119;28;20209;-80
2023/03/27 02:20:10;;;;;;;3.80;0.80;;;;;;;2.16;68.32;100363.91;5049307;28;20253;-80
2023/03/27 02:22:38;;;;;;;7.00;1.10;;;;;;;2.11;69.15;100355.34;5044825;28;20598;-80
2023/03/27 02:25:23;;;;;;;4.57;1.10;;;;;;;2.06;68.96;100358.13;5056935;28;20281;-80
2023/03/27 02:27:54;;;;;;;4.53;1.00;;;;;;;2.02;69.12;100373.13;5058518;28;20205;-81
2023/03/27 02:30:30;;;;;;;5.73;1.43;;;;;;;1.97;69.48;100369.78;5051597;28;20217;-81
2023/03/27 02:33:05;;;;;;;4.40;0.80;;;;;;;1.94;69.44;100377.78;5049656;28;20224;-81
2023/03/27 02:35:38;;;;;;;15.00;1.30;;;;;;;1.92;69.91;100376.09;5056243;28;20193;-80
2023/03/27 02:38:11;;;;;;;4.73;1.70;;;;;;;1.89;70.63;100377.06;5051435;28;20209;-81
2023/03/27 02:40:47;;;;;;;6.53;0.90;;;;;;;1.86;70.75;100377.16;5059936;28;20590;-80
2023/03/27 02:43:19;;;;;;;5.10;0.87;;;;;;;1.81;70.53;100379.06;5049516;28;20239;-81
2023/03/27 02:45:54;;;;;;;8.10;1.00;;;;;;;1.79;70.50;100390.53;5053172;28;20721;-81
2023/03/27 02:48:27;;;;;;;3.77;0.83;;;;;;;1.75;70.98;100395.03;5058725;28;20204;-81
2023/03/27 02:50:58;;;;;;;5.47;1.30;;;;;;;1.72;71.53;100400.38;5053802;28;20255;-81
2023/03/27 02:53:28;;;;;;;6.37;1.50;;;;;;;1.68;71.59;100398.72;5043004;28;20815;-81
2023/03/27 02:55:59;;;;;;;4.37;1.93;;;;;;;1.64;71.86;100399.72;5050775;28;20208;-80
2023/03/27 02:58:34;;;;;;;3.47;1.20;;;;;;;1.61;72.12;100412.97;5054818;28;20206;-82
2023/03/27 03:01:02;;;;;;;4.80;1.03;;;;;;;1.57;72.43;100400.84;5049549;28;20201;-81
2023/03/27 03:03:33;;;;;;;6.30;1.00;;;;;;;1.55;72.22;100407.91;5053352;28;20221;-80
2023/03/27 03:06:03;;;;;;;8.03;1.33;;;;;;;1.53;72.33;100418.44;5058802;28;20213;-81
2023/03/27 03:08:29;;;;;;;5.70;1.07;;;;;;;1.51;72.73;100417.63;5054237;28;20213;-80
2023/03/27 03:11:02;;;;;;;6.57;1.30;;;;;;;1.49;73.09;100406.31;5054267;28;20205;-81
2023/03/27 03:13:29;;;;;;;3.83;0.87;;;;;;;1.47;73.53;100421.25;5052433;28;20206;-81
2023/03/27 03:15:55;;;;;;;8.63;2.00;;;;;;;1.45;73.25;100423.03;5055392;28;20724;-81
2023/03/27 03:18:23;;;;;;;4.77;1.10;;;;;;;1.44;73.71;100426.56;5046973;28;20263;-80
2023/03/27 03:20:52;;;;;;;3.73;1.53;;;;;;;1.44;73.53;100446.72;5050904;28;20201;-80
2023/03/27 03:23:19;;;;;;;3.03;1.30;;;;;;;1.41;74.02;100434.56;5053695;28;20232;-80
2023/03/27 03:25:46;;;;;;;3.00;0.90;;;;;;;1.39;73.75;100437.22;5054841;28;20213;-80
2023/03/27 03:28:16;;;;;;;5.00;1.37;;;;;;;1.38;74.27;100442.53;5054944;28;20242;-80
2023/03/27 03:30:44;;;;;;;5.67;1.33;;;;;;;1.36;73.98;100441.69;5054880;28;20221;-81
2023/03/27 03:33:10;;;;;;;4.67;1.17;;;;;;;1.34;74.73;100441.75;5061585;28;20222;-80
2023/03/27 03:35:37;;;;;;;8.33;1.30;;;;;;;1.34;74.62;100443.50;5051382;28;20214;-81
2023/03/27 03:38:05;;;;;;;5.73;1.03;;;;;;;1.32;75.16;100442.69;5052474;28;20296;-82
2023/03/27 03:40:32;;;;;;;8.27;1.37;;;;;;;1.29;74.48;100454.13;5053051;28;20201;-80
2023/03/27 03:42:59;;;;;;;3.93;0.80;;;;;;;1.28;74.71;100454.16;5054551;28;20225;-81
2023/03/27 03:45:26;;;;;;;4.07;1.00;;;;;;;1.26;75.19;100459.44;5054573;28;20205;-80
2023/03/27 03:47:53;;;;;;;7.87;1.00;;;;;;;1.22;75.40;100457.84;5056032;28;20689;-80
2023/03/27 03:50:19;;;;;;;4.37;1.07;;;;;;;1.22;75.52;100465.72;5056766;28;20202;-80
2023/03/27 03:52:46;;;;;;;6.77;1.07;;;;;;;1.21;75.76;100481.50;5058905;28;20233;-80
2023/03/27 03:55:14;;;;;;;4.90;1.40;;;;;;;1.20;76.15;100479.78;5055170;28;20202;-81
2023/03/27 03:57:45;;;;;;;5.80;1.00;;;;;;;1.18;76.44;100487.69;5052409;28;20212;-80
2023/03/27 04:00:13;;;;;;;5.80;1.13;;;;;;;1.19;76.17;100494.66;5052406;28;20215;-80
2023/03/27 04:02:42;;;;;;;7.13;1.90;;;;;;;1.19;76.72;100496.41;5052320;28;20221;-80
2023/03/27 04:05:09;;;;;;;6.67;0.93;;;;;;;1.18;77.15;100503.41;5053388;28;20233;-80
2023/03/27 04:07:35;;;;;;;4.43;1.10;;;;;;;1.19;77.05;100496.41;5050926;28;20217;-80
2023/03/27 04:10:03;;;;;;;5.13;1.27;;;;;;;1.19;77.58;100507.75;5048379;28;20213;-80
2023/03/27 04:12:30;;;;;;;11.03;1.67;;;;;;;1.18;77.35;100506.03;5049358;28;20259;-81
2023/03/27 04:14:57;;;;;;;9.53;1.77;;;;;;;1.18;77.61;100513.91;5048893;28;20237;-80
2023/03/27 04:17:25;;;;;;;7.87;2.30;;;;;;;1.20;77.92;100511.25;5048498;28;20205;-80
2023/03/27 04:19:53;;;;;;;6.37;1.30;;;;;;;1.19;78.09;100515.63;5049083;28;20237;-80
2023/03/27 04:22:21;;;;;;;6.07;1.40;;;;;;;1.19;78.31;100518.25;5046755;28;20268;-81
2023/03/27 04:24:49;;;;;;;14.33;1.77;;;;;;;1.18;78.37;100511.28;5048331;28;20321;-81
2023/03/27 04:27:16;;;;;;;5.27;1.30;;;;;;;1.17;78.57;100517.44;5054390;28;20209;-81
2023/03/27 04:29:46;;;;;;;9.03;1.17;;;;;;;1.16;78.46;100513.09;5051324;28;20197;-82
2023/03/27 04:32:12;;;;;;;4.50;1.43;;;;;;;1.15;78.78;100516.59;5053724;28;20240;-81
2023/03/27 04:34:39;;;;;;;4.27;1.40;;;;;;;1.16;78.66;100520.97;5052325;28;20603;-80
2023/03/27 04:37:07;;;;;;;6.03;1.20;;;;;;;1.16;78.77;100520.97;5051694;28;20206;-80
2023/03/27 04:39:38;;;;;;;7.63;1.57;;;;;;;1.15;79.10;100528.88;5050859;28;20206;-81
2023/03/27 04:42:05;;;;;;;4.90;1.17;;;;;;;1.16;79.58;100530.59;5056495;28;20236;-80
2023/03/27 04:44:33;;;;;;;6.47;1.37;;;;;;;1.16;79.46;100534.06;5051394;28;20697;-80
2023/03/27 04:47:00;;;;;;;8.13;1.67;;;;;;;1.17;79.81;100537.56;5046956;28;20216;-81
2023/03/27 04:49:27;;;;;;;6.93;1.60;;;;;;;1.15;80.50;100542.84;5054224;28;20205;-81
2023/03/27 04:51:54;;;;;;;10.97;1.00;;;;;;;1.17;80.36;100551.53;5047118;28;20304;-81
2023/03/27 04:54:22;;;;;;;6.07;1.00;;;;;;;1.16;80.62;100549.81;5050299;28;20221;-82
2023/03/27 04:56:49;;;;;;;3.40;1.20;;;;;;;1.19;80.41;100551.50;5050488;28;20216;-81
2023/03/27 04:59:15;;;;;;;4.30;1.47;;;;;;;1.18;80.44;100547.16;5046537;28;20206;-81
2023/03/27 05:01:42;;;;;;;7.40;1.40;;;;;;;1.19;80.30;100559.38;5052582;28;20587;-81
2023/03/27 05:04:08;;;;;;;6.43;1.70;;;;;;;1.20;80.76;100564.56;5051852;28;20819;-80
2023/03/27 05:06:35;;;;;;;4.20;1.33;;;;;;;1.21;80.27;100562.81;5044111;28;20246;-80
2023/03/27 05:09:01;;;;;;;3.70;1.17;;;;;;;1.22;80.52;100573.25;5052208;28;20208;-80
2023/03/27 05:11:29;;;;;;;6.73;1.63;;;;;;;1.21;80.32;100558.44;5052558;28;20228;-80
2023/03/27 05:13:56;;;;;;;6.27;1.37;;;;;;;1.21;80.71;100568.06;5053681;28;20212;-81
2023/03/27 05:16:23;;;;;;;6.00;1.33;;;;;;;1.20;80.03;100574.19;5053498;28;20198;-80
2023/03/27 05:18:49;;;;;;;7.33;1.50;;;;;;;1.18;80.53;100579.47;5056736;28;20200;-81
2023/03/27 05:21:16;;;;;;;8.10;1.40;;;;;;;1.18;80.24;100591.75;5054092;28;20205;-80
2023/03/27 05:23:43;;;;;;;11.30;1.57;;;;;;;1.17;80.31;100590.00;5058094;28;20237;-80
2023/03/27 05:26:09;;;;;;;7.50;2.23;;;;;;;1.15;80.42;100597.06;5049996;28;20201;-82
2023/03/27 05:28:38;;;;;;;5.00;1.20;;;;;;;1.13;80.63;100602.34;5053642;28;20594;-80
2023/03/27 05:31:05;;;;;;;5.67;1.10;;;;;;;1.11;80.45;100601.50;5051910;28;20210;-80
2023/03/27 05:33:31;;;;;;;5.43;1.10;;;;;;;1.13;80.58;100601.47;5041679;28;20214;-81
2023/03/27 05:35:58;;;;;;;4.23;1.33;;;;;;;1.13;80.91;100602.34;5048551;28;20210;-81
2023/03/27 05:38:25;;;;;;;7.73;1.27;;;;;;;1.14;80.33;100600.59;5048853;28;20201;-81
2023/03/27 05:40:52;;;;;;;5.83;1.20;;;;;;;1.15;80.64;100603.16;5055972;28;20239;-80
2023/03/27 05:43:18;;;;;;;9.83;1.40;;;;;;;1.16;80.50;100602.28;5055062;28;20256;-80
2023/03/27 05:45:46;;;;;;;8.83;1.70;;;;;;;1.16;81.18;100620.63;5049786;28;20229;-82
2023/03/27 05:48:13;;;;;;;4.63;1.67;;;;;;;1.18;81.13;100616.22;5051244;28;20296;-82
2023/03/27 05:50:40;;;;;;;5.43;0.97;;;;;;;1.19;80.83;100611.81;5050790;28;20572;-82
2023/03/27 05:53:10;;;;;;;5.30;1.50;;;;;;;1.22;80.69;100615.25;5049810;28;20268;-81
2023/03/27 05:55:37;;;;;;;6.70;1.17;;;;;;;1.27;81.03;100623.81;5050093;28;20202;-81
2023/03/27 05:58:05;;;;;;;3.00;1.13;;;;;;;1.30;80.64;100623.75;5050948;28;20205;-82
2023/03/27 06:00:33;;;;;;;5.33;0.90;;;;;;;1.33;80.97;100623.69;5055037;28;20716;-81
2023/03/27 06:03:02;;;;;;;3.03;1.23;;;;;;;1.36;80.87;100620.97;5052260;28;20225;-82
2023/03/27 06:05:29;;;;;;;5.87;1.40;;;;;;;1.42;80.68;100626.97;5053808;28;20225;-80
2023/03/27 06:07:57;;;;;;;7.77;2.40;;;;;;;1.45;81.04;100629.50;5054201;28;20644;-81
2023/03/27 06:10:25;;;;;;;4.50;1.00;;;;;;;1.49;80.64;100633.78;5055583;28;20692;-80
2023/03/27 06:12:59;;;;;;;5.00;1.60;;;;;;;1.54;80.36;100631.91;5051959;28;20227;-81
2023/03/27 06:15:25;;;;;;;2.07;0.80;;;;;;;1.58;80.20;100638.78;5051725;28;20203;-82
2023/03/27 06:17:52;;;;;;;5.97;1.70;;;;;;;1.64;80.88;100649.09;5054561;28;20246;-82
2023/03/27 06:20:21;;;;;;;4.17;1.07;;;;;;;1.66;80.63;100647.31;5054671;28;20209;-81
2023/03/27 06:22:49;;;;;;;4.47;1.07;;;;;;;1.71;80.65;100648.91;5051844;28;20249;-82
2023/03/27 06:25:16;;;;;;;2.97;1.00;;;;;;;1.75;80.07;100654.94;5053998;28;20232;-82
2023/03/27 06:27:44;;;;;;;7.63;2.50;;;;;;;1.76;79.75;100666.31;5053327;28;20212;-82
2023/03/27 06:30:12;;;;;;;3.87;1.90;;;;;;;1.77;79.45;100662.78;5058133;28;20209;-81
2023/03/27 06:32:44;;;;;;;3.90;1.60;;;;;;;1.78;79.86;100667.13;5056843;28;20226;-82
2023/03/27 06:35:11;;;;;;;6.03;1.10;;;;;;;1.83;80.24;100676.59;5056033;28;20334;-82
2023/03/27 06:37:40;;;;;;;5.70;1.53;;;;;;;1.87;79.59;100666.88;5054467;28;20245;-81
2023/03/27 06:40:09;;;;;;;4.47;1.20;;;;;;;1.93;80.15;100685.09;5058929;28;20197;-82
2023/03/27 06:42:37;;;;;;;3.93;1.00;;;;;;;1.97;79.40;100677.06;5054771;28;20229;-82
2023/03/27 06:45:03;;;;;;;4.73;1.57;;;;;;;2.04;80.07;100681.25;5058150;28;20221;-82
2023/03/27 06:47:30;;;;;;;4.83;1.27;;;;;;;2.11;79.49;100675.84;5052773;28;20210;-83
2023/03/27 06:49:57;;;;;;;5.10;1.40;;;;;;;2.15;79.77;100683.56;5052903;28;20208;-81
2023/03/27 06:52:23;;;;;;;8.23;1.67;;;;;;;2.18;79.64;100683.50;5057497;28;20849;-82
2023/03/27 06:54:51;;;;;;;7.30;1.70;;;;;;;2.25;79.38;100692.06;5055424;28;20210;-81
2023/03/27 06:57:18;;;;;;;4.57;1.50;;;;;;;2.31;78.92;100694.53;5051510;28;20210;-81
2023/03/27 06:59:45;;;;;;;8.57;1.53;;;;;;;2.35;79.14;100701.41;5055465;28;20206;-82
2023/03/27 07:02:11;;;;;;;5.73;0.73;;;;;;;2.40;78.28;100703.00;5048511;28;20221;-81
2023/03/27 07:04:38;;;;;;;3.20;1.50;;;;;;;2.40;78.36;100721.41;5051384;28;20232;-81
2023/03/27 07:07:04;;;;;;;8.00;1.50;;;;;;;2.43;77.86;100716.06;5053692;28;20221;-81
2023/03/27 07:09:31;;;;;;;5.00;1.27;;;;;;;2.45;77.88;100723.91;5048475;28;20220;-82
2023/03/27 07:11:59;;;;;;;4.90;1.53;;;;;;;2.48;78.11;100726.44;5054743;28;20627;-82
2023/03/27 07:14:26;;;;;;;3.70;1.20;;;;;;;2.50;77.29;100722.00;5053599;28;20689;-81
2023/03/27 07:16:52;;;;;;;7.13;1.60;;;;;;;2.50;77.75;100737.78;5052784;28;20551;-81
2023/03/27 07:19:18;;;;;;;4.87;1.33;;;;;;;2.50;77.75;100732.53;5051359;28;20213;-82
2023/03/27 07:21:45;;;;;;;6.33;1.63;;;;;;;2.51;77.52;100731.59;5055777;28;20648;-82
2023/03/27 07:24:12;;;;;;;6.50;1.43;;;;;;;2.53;77.95;100736.81;5053172;28;20228;-82
2023/03/27 07:26:38;;;;;;;7.27;1.57;;;;;;;2.60;77.76;100736.59;5058634;28;20213;-81
2023/03/27 07:29:09;;;;;;;4.37;1.20;;;;;;;2.70;78.00;100735.41;5050063;28;20220;-81
2023/03/27 07:31:36;;;;;;;8.97;1.87;;;;;;;2.83;79.23;100730.66;5056778;28;20220;-81
2023/03/27 07:34:02;;;;;;;6.07;1.60;;;;;;;2.93;78.42;100728.59;5048011;28;20211;-81
2023/03/27 07:36:29;;;;;;;4.73;1.30;;;;;;;3.05;79.28;100742.22;5050489;28;20251;-81
2023/03/27 07:38:55;;;;;;;9.77;1.70;;;;;;;3.16;78.32;100739.28;5053324;28;20209;-82
2023/03/27 07:41:22;;;;;;;6.80;1.70;;;;;;;3.28;77.87;100741.50;5054272;28;20201;-81
2023/03/27 07:43:49;;;;;;;5.07;1.50;;;;;;;3.40;77.95;100749.00;5051160;28;20238;-81
2023/03/27 07:46:17;;;;;;;3.87;1.33;;;;;;;3.52;76.96;100746.91;5053341;28;20221;-81
2023/03/27 07:48:43;;;;;;;4.83;1.20;;;;;;;3.60;77.28;100744.84;5051869;28;20229;-81
2023/03/27 07:51:10;;;;;;;3.60;1.40;;;;;;;3.73;76.99;100747.06;5048976;28;20252;-81
2023/03/27 07:53:36;;;;;;;4.93;1.77;;;;;;;3.88;76.72;100750.94;5053190;28;20205;-82
2023/03/27 07:56:04;;;;;;;6.57;2.60;;;;;;;3.98;75.51;100736.53;5053278;28;20669;-81
2023/03/27 07:58:30;;;;;;;4.70;1.60;;;;;;;4.07;74.93;100752.03;5051834;28;20791;-81
2023/03/27 08:01:00;;;;;;;2.77;1.20;;;;;;;4.18;74.81;100757.78;5053502;28;20206;-81
2023/03/27 08:03:28;;;;;;;5.23;1.40;;;;;;;4.27;73.22;100753.09;5054281;28;20217;-81
2023/03/27 08:05:56;;;;;;;2.93;1.23;;;;;;;4.34;72.35;100760.72;5051400;28;20233;-82
2023/03/27 08:08:23;;;;;;;4.47;1.20;;;;;;;4.41;72.44;100746.41;5054371;28;20283;-81
2023/03/27 08:10:50;;;;;;;5.60;1.43;;;;;;;4.50;71.60;100761.00;5057770;28;20718;-81
2023/03/27 08:13:17;;;;;;;6.47;1.40;;;;;;;4.60;71.83;100765.06;5049428;28;20240;-81
2023/03/27 08:15:43;;;;;;;4.53;1.47;;;;;;;4.72;70.58;100766.38;5059405;28;20216;-82
2023/03/27 08:18:10;;;;;;;5.43;1.40;;;;;;;4.85;70.76;100778.16;5049801;28;20209;-82
2023/03/27 08:20:38;;;;;;;4.57;1.30;;;;;;;4.98;70.36;100775.94;5048780;28;20210;-81
2023/03/27 08:23:05;;;;;;;4.47;1.40;;;;;;;5.14;70.39;100774.44;5044715;28;20236;-82
2023/03/27 08:25:33;;;;;;;2.13;1.33;;;;;;;5.26;69.12;100778.38;5042381;28;20769;-82
2023/03/27 08:28:00;;;;;;;5.17;1.40;;;;;;;5.31;68.02;100774.63;5046712;28;20211;-81
2023/03/27 08:30:27;;;;;;;4.80;1.30;;;;;;;5.38;67.23;100773.44;5049189;28;20202;-81
2023/03/27 08:32:53;;;;;;;4.67;1.33;;;;;;;5.45;67.12;100774.94;5045099;28;20234;-82
2023/03/27 08:35:20;;;;;;;3.50;1.20;;;;;;;5.52;66.90;100780.84;5050773;28;20204;-82
2023/03/27 08:37:48;;;;;;;4.40;1.20;;;;;;;5.68;67.28;100779.28;5047775;28;20332;-81
2023/03/27 08:40:20;;;;;;;5.40;1.27;;;;;;;5.82;66.95;100784.84;5045201;28;20635;-82
2023/03/27 08:42:50;;;;;;;5.57;1.50;;;;;;;5.94;66.37;100780.88;5042383;28;20236;-82
2023/03/27 08:45:20;;;;;;;5.13;1.30;;;;;;;6.00;65.15;100780.63;5047947;28;20759;-82
2023/03/27 08:47:52;;;;;;;2.57;1.13;;;;;;;6.05;64.91;100783.06;5054159;28;20202;-81
2023/03/27 08:50:29;;;;;;;7.27;1.87;;;;;;;6.09;64.53;100777.56;5053932;28;20208;-82
2023/03/27 08:52:58;;;;;;;5.07;1.33;;;;;;;6.11;63.63;100790.72;5061941;28;20727;-82
2023/03/27 08:55:33;;;;;;;4.57;1.63;;;;;;;6.03;63.28;100796.34;5053127;28;20293;-81
2023/03/27 08:57:59;;;;;;;4.10;1.50;;;;;;;5.93;63.54;100792.34;5055823;28;20764;-82
2023/03/27 09:00:32;;;;;;;5.60;1.43;;;;;;;5.88;64.26;100795.22;5057546;28;20212;-81
2023/03/27 09:03:06;;;;;;;4.30;1.27;;;;;;;5.89;63.94;100801.38;5055896;28;20221;-81
2023/03/27 09:05:41;;;;;;;5.97;1.63;;;;;;;5.90;64.05;100792.50;5054440;28;20241;-82
2023/03/27 09:08:22;;;;;;;5.73;1.43;;;;;;;5.92;63.76;100802.06;5052539;28;20197;-82
2023/03/27 09:10:52;;;;;;;7.60;1.20;;;;;;;5.91;63.25;100805.63;5050070;28;20201;-82
2023/03/27 09:13:22;;;;;;;3.80;1.07;;;;;;;5.89;62.32;100814.59;5054099;28;20701;-82
2023/03/27 09:15:56;;;;;;;4.40;1.60;;;;;;;5.82;62.35;100800.72;5052784;28;20206;-81
2023/03/27 09:18:27;;;;;;;5.33;1.17;;;;;;;5.86;62.76;100796.16;5053712;28;20197;-81
2023/03/27 09:20:56;;;;;;;3.03;1.57;;;;;;;5.95;63.13;100806.38;5049091;28;20600;-82
2023/03/27 09:23:30;;;;;;;3.70;1.33;;;;;;;6.02;62.90;100799.91;5054599;28;20226;-81
2023/03/27 09:26:00;;;;;;;8.53;1.50;;;;;;;6.11;62.95;100804.81;5052827;28;20320;-82
2023/03/27 09:28:31;;;;;;;5.50;1.40;;;;;;;6.10;60.87;100808.38;5053458;28;20211;-82
2023/03/27 09:31:00;;;;;;;3.87;1.17;;;;;;;6.08;60.89;100812.88;5049700;28;20197;-82
2023/03/27 09:33:26;;;;;;;7.93;1.87;;;;;;;6.05;60.58;100806.88;5054362;28;20733;-83
2023/03/27 09:35:53;;;;;;;2.10;1.13;;;;;;;6.02;60.67;100813.13;5053520;28;20801;-82
2023/03/27 09:38:32;;;;;;;5.10;1.63;;;;;;;6.04;60.85;100813.06;5059569;28;20202;-81
2023/03/27 09:41:01;;;;;;;5.33;1.20;;;;;;;6.03;60.75;100824.56;5058167;28;21400;-81
2023/03/27 09:43:39;;;;;;;3.23;1.10;;;;;;;6.06;60.57;100814.75;5053367;28;20229;-82
2023/03/27 09:46:07;;;;;;;3.27;1.00;;;;;;;6.12;60.17;100810.94;5048550;28;20220;-81
2023/03/27 09:48:38;;;;;;;4.27;0.90;;;;;;;6.19;60.53;100812.41;5051557;28;20304;-82
2023/03/27 09:51:05;;;;;;;7.53;1.10;;;;;;;6.24;60.34;100818.38;5056472;28;20205;-81
2023/03/27 09:53:34;;;;;;;5.00;1.50;;;;;;;6.27;60.07;100820.88;5057300;28;20202;-81
2023/03/27 09:56:04;;;;;;;5.30;1.10;;;;;;;6.37;59.44;100814.28;5058768;28;20229;-81
2023/03/27 09:58:35;;;;;;;2.90;1.30;;;;;;;6.44;60.11;100820.19;5065229;28;20212;-81
2023/03/27 10:01:12;;;;;;;4.97;1.03;;;;;;;6.53;59.62;100817.09;5057595;28;20198;-82
2023/03/27 10:03:40;;;;;;;6.10;1.20;;;;;;;6.59;59.41;100832.72;5057435;28;20231;-82
2023/03/27 10:06:09;;;;;;;2.63;1.00;;;;;;;6.59;58.12;100820.34;5058292;28;20767;-81
2023/03/27 10:08:41;;;;;;;2.80;1.27;;;;;;;6.55;57.52;100821.41;5048665;28;20210;-82
2023/03/27 10:11:15;;;;;;;2.60;0.70;;;;;;;6.52;57.47;100824.19;5057361;28;20236;-82
2023/03/27 10:13:46;;;;;;;4.10;1.50;;;;;;;6.48;56.70;100825.25;5055338;28;20205;-82
2023/03/27 10:16:16;;;;;;;3.03;1.00;;;;;;;6.53;56.80;100831.19;5056949;28;20259;-81
2023/03/27 10:18:45;;;;;;;2.70;0.80;;;;;;;6.60;57.54;100835.31;5056035;28;20221;-82
2023/03/27 10:21:18;;;;;;;4.80;1.20;;;;;;;6.68;57.68;100826.16;5057995;28;20698;-82
2023/03/27 10:23:49;;;;;;;2.03;1.07;;;;;;;6.67;57.43;100814.72;5053500;28;20204;-81
2023/03/27 10:26:19;;;;;;;4.07;1.10;;;;;;;6.71;57.98;100826.88;5053276;28;20271;-82
2023/03/27 10:28:48;;;;;;;4.27;0.90;;;;;;;6.74;57.64;100810.00;5057074;28;20212;-82
2023/03/27 10:31:28;;;;;;;3.77;1.00;;;;;;;6.80;57.88;100807.97;5057307;28;20591;-81
2023/03/27 10:33:56;;;;;;;1.70;0.60;;;;;;;6.80;56.84;100823.84;5048758;28;20202;-81
2023/03/27 10:36:24;;;;;;;7.17;1.40;;;;;;;6.75;56.19;100819.66;5049200;28;20713;-82
2023/03/27 10:38:56;;;;;;;2.20;0.80;;;;;;;6.71;56.93;100818.94;5046514;28;20210;-82
2023/03/27 10:41:24;;;;;;;2.57;0.93;;;;;;;6.69;56.76;100823.44;5054626;28;20206;-82
2023/03/27 10:43:52;;;;;;;3.73;1.00;;;;;;;6.65;55.87;100827.13;5044562;28;20202;-82
2023/03/27 10:46:22;;;;;;;2.30;0.87;;;;;;;6.66;56.95;100835.94;5050660;28;20224;-81
2023/03/27 10:48:55;;;;;;;2.07;0.70;;;;;;;6.67;57.11;100857.06;5048171;28;20646;-82
2023/03/27 10:51:32;;;;;;;1.00;0.60;;;;;;;6.56;57.07;100875.19;5055776;28;20208;-82
2023/03/27 10:54:06;;;;;;;3.53;0.80;;;;;;;6.36;59.00;100881.34;5050438;28;20252;-82
2023/03/27 10:56:45;;;;;;;0.93;0.57;;;;;;;6.19;59.71;100871.47;5055666;28;20192;-82
2023/03/27 10:59:18;;;;;;;4.10;0.87;;;;;;;6.00;60.84;100878.44;5060779;28;20293;-82
2023/03/27 11:01:49;;;;;;;1.53;0.77;;;;;;;5.90;62.86;100862.09;5056238;28;20225;-81
2023/03/27 11:04:20;;;;;;;5.30;0.60;;;;;;;5.89;64.41;100863.03;5058321;28;20280;-81
2023/03/27 11:06:49;;;;;;;2.57;0.60;;;;;;;5.90;65.98;100855.97;5056516;28;20229;-81
2023/03/27 11:09:22;;;;;;;5.53;1.10;;;;;;;5.90;66.85;100859.47;5053599;28;20213;-81
2023/03/27 11:11:54;;;;;;;2.83;0.90;;;;;;;5.95;67.50;100855.75;5054013;28;20248;-81
2023/03/27 11:14:24;;;;;;;3.17;1.20;;;;;;;6.00;68.62;100862.56;5052738;28;20202;-81
2023/03/27 11:16:56;;;;;;;2.10;1.10;;;;;;;6.06;68.33;100856.19;5048500;28;20202;-80
2023/03/27 11:19:32;;;;;;;3.50;0.80;;;;;;;6.09;67.59;100856.88;5045498;28;20265;-82
2023/03/27 11:22:06;;;;;;;1.30;0.53;;;;;;;6.10;67.49;100863.91;5060194;28;20236;-80
2023/03/27 11:24:38;;;;;;;3.57;1.10;;;;;;;6.10;66.95;100894.75;5050121;28;20238;-82
2023/03/27 11:27:12;;;;;;;2.83;0.80;;;;;;;6.12;66.87;100877.91;5050819;28;20257;-80
2023/03/27 11:29:45;;;;;;;2.33;0.80;;;;;;;6.20;66.71;100896.13;5058760;28;20237;-82
2023/03/27 11:32:20;;;;;;;2.27;0.80;;;;;;;6.22;67.26;100904.88;5064066;28;20236;-82
2023/03/27 11:34:52;;;;;;;2.30;0.63;;;;;;;6.17;66.52;100923.56;5051948;28;20600;-82
2023/03/27 11:37:24;;;;;;;2.00;0.70;;;;;;;6.12;66.52;100930.81;5058116;28;20251;-82
2023/03/27 11:39:58;;;;;;;1.17;0.50;;;;;;;6.05;66.20;100945.22;5065039;28;20264;-83
2023/03/27 11:42:27;;;;;;;1.97;0.80;;;;;;;5.88;66.06;100947.63;5060768;28;20225;-84
2023/03/27 11:44:54;;;;;;;0.60;0.50;;;;;;;5.69;66.83;100943.97;5061145;28;20220;-84